createdAt,value
2019-03-19T00:00:55.045Z,17.50
2019-03-19T00:03:25.164Z,17.50
2019-03-19T00:05:55.355Z,17.50
2019-03-19T00:08:27.575Z,17.50
2019-03-19T00:10:57.914Z,17.40
2019-03-19T00:13:29.629Z,17.40
2019-03-19T00:16:00.197Z,17.40
2019-03-19T00:18:30.721Z,17.40
2019-03-19T00:21:01.501Z,17.40
2019-03-19T00:23:31.736Z,17.40
2019-03-19T00:26:01.839Z,17.40
2019-03-19T00:28:31.994Z,17.40
2019-03-19T00:31:03.293Z,17.40
2019-03-19T00:33:37.983Z,17.30
2019-03-19T00:36:08.105Z,17.30
2019-03-19T00:38:42.303Z,17.30
2019-03-19T00:41:12.426Z,17.30
2019-03-19T00:43:42.591Z,17.30
2019-03-19T00:46:12.725Z,17.30
2019-03-19T00:48:43.237Z,17.30
2019-03-19T00:51:13.371Z,17.30
2019-03-19T00:53:45.508Z,17.30
2019-03-19T00:56:15.634Z,17.30
2019-03-19T00:58:45.804Z,17.30
2019-03-19T01:01:17.132Z,17.20
2019-03-19T01:03:49.765Z,17.20
2019-03-19T01:06:19.960Z,17.20
2019-03-19T01:08:50.687Z,17.20
2019-03-19T01:11:20.901Z,17.20
2019-03-19T01:13:51.137Z,17.20
2019-03-19T01:16:23.630Z,17.20
2019-03-19T01:18:54.220Z,17.20
2019-03-19T01:21:26.884Z,17.20
2019-03-19T01:23:57.054Z,17.20
2019-03-19T01:26:27.154Z,17.10
2019-03-19T01:28:57.786Z,17.10
2019-03-19T01:31:28.152Z,17.10
2019-03-19T01:34:00.567Z,17.10
2019-03-19T01:36:31.548Z,17.10
2019-03-19T01:39:01.671Z,17.10
2019-03-19T01:41:35.530Z,17.10
2019-03-19T01:44:05.659Z,17.10
2019-03-19T01:46:35.859Z,17.10
2019-03-19T01:49:07.587Z,17.10
2019-03-19T01:51:38.912Z,17.00
2019-03-19T01:54:10.084Z,17.00
2019-03-19T01:56:40.367Z,17.00
2019-03-19T01:59:13.836Z,17.00
2019-03-19T02:01:43.997Z,17.00
2019-03-19T02:04:14.135Z,17.00
2019-03-19T02:06:45.164Z,17.00
2019-03-19T02:09:15.300Z,17.00
2019-03-19T02:11:45.448Z,17.00
2019-03-19T02:14:15.594Z,17.00
2019-03-19T02:16:45.855Z,17.00
2019-03-19T02:19:15.989Z,16.90
2019-03-19T02:21:46.126Z,16.90
2019-03-19T02:24:16.257Z,16.90
2019-03-19T02:26:46.432Z,16.90
2019-03-19T02:29:16.537Z,16.90
2019-03-19T02:31:46.672Z,16.90
2019-03-19T02:34:16.798Z,16.90
2019-03-19T02:36:46.950Z,16.90
2019-03-19T02:39:17.083Z,16.90
2019-03-19T02:41:47.230Z,16.90
2019-03-19T02:44:17.362Z,16.80
2019-03-19T02:46:47.496Z,16.80
2019-03-19T02:49:17.650Z,16.80
2019-03-19T02:51:47.768Z,16.80
2019-03-19T02:54:17.897Z,16.80
2019-03-19T02:56:49.115Z,16.80
2019-03-19T02:59:19.231Z,16.80
2019-03-19T03:01:49.373Z,16.80
2019-03-19T03:04:19.513Z,16.80
2019-03-19T03:06:49.717Z,16.70
2019-03-19T03:09:19.867Z,16.70
2019-03-19T03:11:49.993Z,16.70
2019-03-19T03:14:20.140Z,16.70
2019-03-19T03:16:50.276Z,16.70
2019-03-19T03:19:20.413Z,16.70
2019-03-19T03:21:50.556Z,16.70
2019-03-19T03:24:20.683Z,16.70
2019-03-19T03:26:50.860Z,16.70
2019-03-19T03:29:20.957Z,16.70
2019-03-19T03:31:57.010Z,16.60
2019-03-19T03:34:27.119Z,16.60
2019-03-19T03:36:57.271Z,16.60
2019-03-19T03:39:27.388Z,16.60
2019-03-19T03:41:57.599Z,16.60
2019-03-19T03:44:27.730Z,16.60
2019-03-19T03:46:57.865Z,16.60
2019-03-19T03:49:28.002Z,16.60
2019-03-19T03:51:58.135Z,16.60
2019-03-19T03:54:28.308Z,16.60
2019-03-19T03:57:02.483Z,16.60
2019-03-19T03:59:30.270Z,16.50
2019-03-19T04:02:00.410Z,16.60
2019-03-19T04:04:30.588Z,16.50
2019-03-19T04:07:00.721Z,16.50
2019-03-19T04:09:30.873Z,16.50
2019-03-19T04:12:01.019Z,16.50
2019-03-19T04:14:31.170Z,16.50
2019-03-19T04:17:01.302Z,16.50
2019-03-19T04:19:31.430Z,16.50
2019-03-19T04:22:01.583Z,16.50
2019-03-19T04:24:32.751Z,16.50
2019-03-19T04:27:15.167Z,16.40
2019-03-19T04:29:34.719Z,16.40
2019-03-19T04:32:04.881Z,16.40
2019-03-19T04:34:35.001Z,16.40
2019-03-19T04:37:05.132Z,16.40
2019-03-19T04:39:35.268Z,16.40
2019-03-19T04:42:05.411Z,16.40
2019-03-19T04:44:35.540Z,16.40
2019-03-19T04:47:05.685Z,16.40
2019-03-19T04:49:35.800Z,16.40
2019-03-19T04:52:05.961Z,16.40
2019-03-19T04:54:36.080Z,16.40
2019-03-19T04:57:06.222Z,16.40
2019-03-19T04:59:36.365Z,16.40
2019-03-19T05:02:06.566Z,16.40
2019-03-19T05:04:36.868Z,16.50
2019-03-19T05:07:07.004Z,16.50
2019-03-19T05:09:37.139Z,16.50
2019-03-19T05:12:07.285Z,16.60
2019-03-19T05:14:37.417Z,16.60
2019-03-19T05:17:07.543Z,16.70
2019-03-19T05:19:37.687Z,16.70
2019-03-19T05:22:07.920Z,16.80
2019-03-19T05:24:38.060Z,16.80
2019-03-19T05:27:08.206Z,16.90
2019-03-19T05:29:38.408Z,16.90
2019-03-19T05:32:08.540Z,16.90
2019-03-19T05:34:38.677Z,17.00
2019-03-19T05:37:08.799Z,17.00
2019-03-19T05:39:38.943Z,17.10
2019-03-19T05:42:09.098Z,17.10
2019-03-19T05:44:39.200Z,17.10
2019-03-19T05:47:09.334Z,17.10
2019-03-19T05:49:39.475Z,17.20
2019-03-19T05:52:09.599Z,17.20
2019-03-19T05:54:39.742Z,17.20
2019-03-19T05:57:09.970Z,17.20
2019-03-19T05:59:40.180Z,17.20
2019-03-19T06:02:10.309Z,17.20
2019-03-19T06:04:40.452Z,17.20
2019-03-19T06:07:10.647Z,17.20
2019-03-19T06:09:40.782Z,17.20
2019-03-19T06:12:10.920Z,17.20
2019-03-19T06:14:41.143Z,17.20
2019-03-19T06:17:11.280Z,17.20
2019-03-19T06:19:41.416Z,17.30
2019-03-19T06:22:11.539Z,17.30
2019-03-19T06:24:41.673Z,17.30
2019-03-19T06:27:11.867Z,17.40
2019-03-19T06:29:42.013Z,17.40
2019-03-19T06:32:12.150Z,17.40
2019-03-19T06:34:43.270Z,17.40
2019-03-19T06:37:13.389Z,17.40
2019-03-19T06:39:43.531Z,17.40
2019-03-19T06:42:13.652Z,17.40
2019-03-19T06:44:44.738Z,17.40
2019-03-19T06:47:14.874Z,17.40
2019-03-19T06:49:45.991Z,17.40
2019-03-19T06:52:16.115Z,17.50
2019-03-19T06:54:46.247Z,17.50
2019-03-19T06:57:17.363Z,17.50
2019-03-19T06:59:47.686Z,17.50
2019-03-19T07:02:18.801Z,17.60
2019-03-19T07:04:48.971Z,17.70
2019-03-19T07:07:19.092Z,17.70
2019-03-19T07:09:49.240Z,17.80
2019-03-19T07:12:19.380Z,17.80
2019-03-19T07:14:49.513Z,17.80
2019-03-19T07:17:19.637Z,18.00
2019-03-19T07:19:49.794Z,18.10
2019-03-19T07:22:19.921Z,18.10
2019-03-19T07:24:50.144Z,18.10
2019-03-19T07:27:20.275Z,18.20
2019-03-19T07:29:50.414Z,18.20
2019-03-19T07:32:20.543Z,18.20
2019-03-19T07:34:50.681Z,18.20
2019-03-19T07:37:20.811Z,18.30
2019-03-19T07:39:50.957Z,18.30
2019-03-19T07:42:21.091Z,18.30
2019-03-19T07:44:51.218Z,18.40
2019-03-19T07:47:21.373Z,18.40
2019-03-19T07:49:51.506Z,18.50
2019-03-19T07:52:21.627Z,18.50
2019-03-19T07:54:51.762Z,18.50
2019-03-19T07:57:21.972Z,18.50
2019-03-19T07:59:53.150Z,18.60
2019-03-19T08:02:24.875Z,18.70
2019-03-19T08:04:55.002Z,18.70
2019-03-19T08:07:25.159Z,18.80
2019-03-19T08:09:55.302Z,18.70
2019-03-19T08:12:25.438Z,18.70
2019-03-19T08:14:58.257Z,18.70
2019-03-19T08:17:28.407Z,18.80
2019-03-19T08:19:58.526Z,18.80
2019-03-19T08:22:28.675Z,18.90
2019-03-19T08:24:58.838Z,19.00
2019-03-19T08:27:28.970Z,19.10
2019-03-19T08:29:59.107Z,19.10
2019-03-19T08:32:29.232Z,19.20
2019-03-19T08:34:59.390Z,19.20
2019-03-19T08:37:29.524Z,19.30
2019-03-19T08:39:59.646Z,19.30
2019-03-19T08:42:29.786Z,19.30
2019-03-19T08:44:59.911Z,19.40
2019-03-19T08:47:30.050Z,19.40
2019-03-19T08:50:00.189Z,19.40
2019-03-19T08:52:30.308Z,19.50
2019-03-19T08:55:00.438Z,19.50
2019-03-19T08:57:31.536Z,19.50
2019-03-19T09:00:04.600Z,19.50
2019-03-19T09:02:35.570Z,19.50
2019-03-19T09:05:08.906Z,19.50
2019-03-19T09:07:40.022Z,19.60
2019-03-19T09:10:15.243Z,19.60
2019-03-19T09:12:47.984Z,19.60
2019-03-19T09:15:29.219Z,19.60
2019-03-19T09:17:59.353Z,19.60
2019-03-19T09:20:29.473Z,19.60
2019-03-19T09:22:59.612Z,19.60
2019-03-19T09:25:29.742Z,19.60
2019-03-19T09:27:59.877Z,19.60
2019-03-19T09:30:30.169Z,19.60
2019-03-19T09:33:00.299Z,19.60
2019-03-19T09:35:30.437Z,19.60
2019-03-19T09:38:00.579Z,19.60
2019-03-19T09:40:30.732Z,19.60
2019-03-19T09:43:00.866Z,19.60
2019-03-19T09:45:30.997Z,19.60
2019-03-19T09:48:01.199Z,19.60
2019-03-19T09:50:31.320Z,19.60
2019-03-19T09:53:06.924Z,19.60
2019-03-19T09:55:37.153Z,19.60
2019-03-19T09:58:07.334Z,19.60
2019-03-19T10:00:37.479Z,19.60
2019-03-19T10:03:07.615Z,19.60
2019-03-19T10:05:37.739Z,19.60
2019-03-19T10:08:08.005Z,19.50
2019-03-19T10:10:38.155Z,19.50
2019-03-19T10:13:08.334Z,19.50
2019-03-19T10:15:38.507Z,19.60
2019-03-19T10:18:08.615Z,19.60
2019-03-19T10:20:38.745Z,19.50
2019-03-19T10:23:08.887Z,19.50
2019-03-19T10:25:39.081Z,19.40
2019-03-19T10:28:09.383Z,19.40
2019-03-19T10:30:39.518Z,19.40
2019-03-19T10:33:09.663Z,19.40
2019-03-19T10:35:39.802Z,19.40
2019-03-19T10:38:09.946Z,19.40
2019-03-19T10:40:40.084Z,19.40
2019-03-19T10:43:10.378Z,19.40
2019-03-19T10:45:40.510Z,19.30
2019-03-19T10:48:10.661Z,19.30
2019-03-19T10:50:40.779Z,19.30
2019-03-19T10:53:10.987Z,19.30
2019-03-19T10:55:41.185Z,19.30
2019-03-19T10:58:11.564Z,19.30
2019-03-19T11:00:43.609Z,19.30
2019-03-19T11:03:14.105Z,19.30
2019-03-19T11:05:47.616Z,19.30
2019-03-19T11:08:17.749Z,19.30
2019-03-19T11:10:47.880Z,19.40
2019-03-19T11:13:18.021Z,19.40
2019-03-19T11:15:48.157Z,19.40
2019-03-19T11:18:18.310Z,19.40
2019-03-19T11:20:48.439Z,19.40
2019-03-19T11:23:18.601Z,19.40
2019-03-19T11:25:54.513Z,19.40
2019-03-19T11:28:20.573Z,19.40
2019-03-19T11:30:50.799Z,19.40
2019-03-19T11:33:20.942Z,19.40
2019-03-19T11:35:51.064Z,19.40
2019-03-19T11:38:21.239Z,19.40
2019-03-19T11:40:51.349Z,19.40
2019-03-19T11:43:21.494Z,19.40
2019-03-19T11:45:51.708Z,19.50
2019-03-19T11:48:21.844Z,19.50
2019-03-19T11:50:52.041Z,19.50
2019-03-19T11:53:22.148Z,19.50
2019-03-19T11:55:52.273Z,19.40
2019-03-19T11:58:22.408Z,19.40
2019-03-19T12:01:00.223Z,19.40
2019-03-19T12:03:30.375Z,19.40
2019-03-19T12:06:00.496Z,19.40
2019-03-19T12:08:30.629Z,19.40
2019-03-19T12:11:00.768Z,19.40
2019-03-19T12:13:30.907Z,19.50
2019-03-19T12:16:01.256Z,19.60
2019-03-19T12:18:31.396Z,19.60
2019-03-19T12:21:01.528Z,19.20
2019-03-19T12:23:31.660Z,19.00
2019-03-19T12:26:02.877Z,18.80
2019-03-19T12:28:39.710Z,18.80
2019-03-19T12:31:04.976Z,18.60
2019-03-19T12:33:40.766Z,18.40
2019-03-19T12:36:07.915Z,18.30
2019-03-19T12:38:38.065Z,18.10
2019-03-19T12:41:08.188Z,18.00
2019-03-19T12:43:38.396Z,17.80
2019-03-19T12:46:08.521Z,17.70
2019-03-19T12:48:38.658Z,17.80
2019-03-19T12:51:08.812Z,18.00
2019-03-19T12:53:38.941Z,18.10
2019-03-19T12:56:09.077Z,18.10
2019-03-19T12:58:39.204Z,18.20
2019-03-19T13:01:09.433Z,18.20
2019-03-19T13:03:39.657Z,18.10
2019-03-19T13:06:09.984Z,18.00
2019-03-19T13:08:40.207Z,17.80
2019-03-19T13:11:13.371Z,18.00
2019-03-19T13:13:43.516Z,18.40
2019-03-19T13:16:13.651Z,18.70
2019-03-19T13:18:43.779Z,18.80
2019-03-19T13:21:13.914Z,18.90
2019-03-19T13:23:44.049Z,19.00
2019-03-19T13:26:14.169Z,19.10
2019-03-19T13:28:44.311Z,19.30
2019-03-19T13:31:14.435Z,19.50
2019-03-19T13:33:44.577Z,19.60
2019-03-19T13:36:14.723Z,19.70
2019-03-19T13:38:44.851Z,19.70
2019-03-19T13:41:14.968Z,19.80
2019-03-19T13:43:45.184Z,19.80
2019-03-19T13:46:15.320Z,19.90
2019-03-19T13:48:45.459Z,20.00
2019-03-19T13:51:15.611Z,20.10
2019-03-19T13:53:45.768Z,20.10
2019-03-19T13:56:17.861Z,20.10
2019-03-19T13:58:48.887Z,19.80
2019-03-19T14:01:19.018Z,19.60
2019-03-19T14:03:49.163Z,19.50
2019-03-19T14:06:19.297Z,19.40
2019-03-19T14:08:49.479Z,19.20
2019-03-19T14:11:20.624Z,19.10
2019-03-19T14:13:50.768Z,19.10
2019-03-19T14:16:20.939Z,19.10
2019-03-19T14:18:51.069Z,19.10
2019-03-19T14:21:21.214Z,19.00
2019-03-19T14:23:51.358Z,19.00
2019-03-19T14:26:22.468Z,19.10
2019-03-19T14:28:52.600Z,19.00
2019-03-19T14:31:22.756Z,19.00
2019-03-19T14:33:52.884Z,18.90
2019-03-19T14:36:23.997Z,18.90
2019-03-19T14:38:55.197Z,19.00
2019-03-19T14:41:25.338Z,19.00
2019-03-19T14:43:55.457Z,18.90
2019-03-19T14:46:25.597Z,18.90
2019-03-19T14:48:55.736Z,18.90
2019-03-19T14:51:25.893Z,18.90
2019-03-19T14:53:56.021Z,18.90
2019-03-19T14:56:26.164Z,18.90
2019-03-19T14:58:56.283Z,18.90
2019-03-19T15:01:26.417Z,18.90
2019-03-19T15:03:56.558Z,18.90
2019-03-19T15:06:26.706Z,18.90
2019-03-19T15:08:57.800Z,18.80
2019-03-19T15:11:27.940Z,18.80
2019-03-19T15:13:58.083Z,18.70
2019-03-19T15:16:28.222Z,18.70
2019-03-19T15:18:58.352Z,18.60
2019-03-19T15:21:28.492Z,18.50
2019-03-19T15:23:58.656Z,18.50
2019-03-19T15:26:28.972Z,18.40
2019-03-19T15:28:59.155Z,18.50
2019-03-19T15:31:30.136Z,18.50
2019-03-19T15:34:03.267Z,18.40
2019-03-19T15:36:32.330Z,18.40
2019-03-19T15:39:02.381Z,18.30
2019-03-19T15:41:34.156Z,18.30
2019-03-19T15:44:04.277Z,18.20
2019-03-19T15:46:34.418Z,18.20
2019-03-19T15:49:04.553Z,18.10
2019-03-19T15:51:34.713Z,18.10
2019-03-19T15:54:04.845Z,18.10
2019-03-19T15:56:34.986Z,18.00
2019-03-19T15:59:05.108Z,18.00
2019-03-19T16:01:40.284Z,18.00
2019-03-19T16:04:07.069Z,18.00
2019-03-19T16:06:37.319Z,18.00
2019-03-19T16:09:08.928Z,18.10
2019-03-19T16:11:39.085Z,18.40
2019-03-19T16:14:10.302Z,18.70
2019-03-19T16:16:40.512Z,18.90
2019-03-19T16:19:10.648Z,19.00
2019-03-19T16:21:40.794Z,19.10
2019-03-19T16:24:10.925Z,19.20
2019-03-19T16:26:41.069Z,19.20
2019-03-19T16:29:11.212Z,19.20
2019-03-19T16:31:50.653Z,19.30
2019-03-19T16:34:13.178Z,19.40
2019-03-19T16:36:43.324Z,19.40
2019-03-19T16:39:13.448Z,19.40
2019-03-19T16:41:43.888Z,19.40
2019-03-19T16:44:13.989Z,19.40
2019-03-19T16:46:48.317Z,19.40
2019-03-19T16:49:18.461Z,19.40
2019-03-19T16:51:48.603Z,19.50
2019-03-19T16:54:18.728Z,19.40
2019-03-19T16:56:48.873Z,19.40
2019-03-19T16:59:19.011Z,19.40
2019-03-19T17:01:49.160Z,19.40
2019-03-19T17:04:19.291Z,19.40
2019-03-19T17:06:49.500Z,19.40
2019-03-19T17:09:20.041Z,19.40
2019-03-19T17:11:50.857Z,19.40
2019-03-19T17:14:21.000Z,19.30
2019-03-19T17:16:51.369Z,19.30
2019-03-19T17:19:21.564Z,19.30
2019-03-19T17:21:51.667Z,19.20
2019-03-19T17:24:21.798Z,19.20
2019-03-19T17:26:52.996Z,19.30
2019-03-19T17:29:23.194Z,19.30
2019-03-19T17:31:53.454Z,19.30
2019-03-19T17:34:24.374Z,19.20
2019-03-19T17:36:54.657Z,19.20
2019-03-19T17:39:24.785Z,19.20
2019-03-19T17:41:54.932Z,19.20
2019-03-19T17:44:25.060Z,19.20
2019-03-19T17:46:55.197Z,19.20
2019-03-19T17:49:25.323Z,19.20
2019-03-19T17:51:55.477Z,19.20
2019-03-19T17:54:25.589Z,19.20
2019-03-19T17:56:55.726Z,19.20
2019-03-19T17:59:25.897Z,19.20
2019-03-19T18:01:57.103Z,19.10
2019-03-19T18:04:28.210Z,19.10
2019-03-19T18:06:58.358Z,19.10
2019-03-19T18:09:28.486Z,19.10
2019-03-19T18:11:58.718Z,19.10
2019-03-19T18:14:28.886Z,19.10
2019-03-19T18:16:59.941Z,19.00
2019-03-19T18:19:30.114Z,19.00
2019-03-19T18:22:00.254Z,19.00
2019-03-19T18:24:30.408Z,18.90
2019-03-19T18:27:01.606Z,18.90
2019-03-19T18:29:31.728Z,18.90
2019-03-19T18:32:01.885Z,18.90
2019-03-19T18:34:33.631Z,18.90
2019-03-19T18:37:03.944Z,18.90
2019-03-19T18:39:35.613Z,18.90
2019-03-19T18:42:05.944Z,18.80
2019-03-19T18:44:36.070Z,18.80
2019-03-19T18:47:06.230Z,18.80
2019-03-19T18:49:36.365Z,18.80
2019-03-19T18:52:06.508Z,18.80
2019-03-19T18:54:36.685Z,18.80
2019-03-19T18:57:06.775Z,18.80
2019-03-19T18:59:36.999Z,18.80
2019-03-19T19:02:07.126Z,18.80
2019-03-19T19:04:38.323Z,18.80
2019-03-19T19:07:08.583Z,18.80
2019-03-19T19:09:38.756Z,18.80
2019-03-19T19:12:08.982Z,18.80
2019-03-19T19:14:41.896Z,18.80
2019-03-19T19:17:13.324Z,18.70
2019-03-19T19:19:43.726Z,18.70
2019-03-19T19:22:13.899Z,18.70
2019-03-19T19:24:44.080Z,18.70
2019-03-19T19:27:15.380Z,18.70
2019-03-19T19:29:45.498Z,18.70
2019-03-19T19:32:15.649Z,18.70
2019-03-19T19:34:45.778Z,18.70
2019-03-19T19:37:15.920Z,18.60
2019-03-19T19:39:46.071Z,18.60
2019-03-19T19:42:16.294Z,18.60
2019-03-19T19:44:47.559Z,18.60
2019-03-19T19:47:17.817Z,18.60
2019-03-19T19:49:48.145Z,18.60
2019-03-19T19:52:18.375Z,18.60
2019-03-19T19:54:48.597Z,18.60
2019-03-19T19:57:18.821Z,18.60
2019-03-19T19:59:48.970Z,18.60
2019-03-19T20:02:19.148Z,18.60
2019-03-19T20:04:49.280Z,18.60
2019-03-19T20:07:19.406Z,18.60
2019-03-19T20:09:49.579Z,18.60
2019-03-19T20:12:19.720Z,18.60
2019-03-19T20:14:49.874Z,18.50
2019-03-19T20:17:20.020Z,18.50
2019-03-19T20:19:50.184Z,18.50
2019-03-19T20:22:20.316Z,18.50
2019-03-19T20:24:50.466Z,18.50
2019-03-19T20:27:20.669Z,18.50
2019-03-19T20:29:50.880Z,18.50
2019-03-19T20:32:21.026Z,18.50
2019-03-19T20:34:51.207Z,18.50
2019-03-19T20:37:21.473Z,18.50
2019-03-19T20:39:51.749Z,18.50
2019-03-19T20:42:22.046Z,18.50
2019-03-19T20:44:52.211Z,18.50
2019-03-19T20:47:22.338Z,18.50
2019-03-19T20:49:52.478Z,18.50
2019-03-19T20:52:22.616Z,18.50
2019-03-19T20:54:52.756Z,18.50
2019-03-19T20:57:22.954Z,18.40
2019-03-19T20:59:53.095Z,18.50
2019-03-19T21:02:26.598Z,18.40
2019-03-19T21:04:56.820Z,18.40
2019-03-19T21:07:26.942Z,18.50
2019-03-19T21:09:57.080Z,18.40
2019-03-19T21:12:27.220Z,18.40
2019-03-19T21:14:57.395Z,18.40
2019-03-19T21:17:27.525Z,18.40
2019-03-19T21:19:57.825Z,18.40
2019-03-19T21:22:27.984Z,18.40
2019-03-19T21:24:58.097Z,18.40
2019-03-19T21:27:28.229Z,18.30
2019-03-19T21:29:58.379Z,18.30
2019-03-19T21:32:28.572Z,18.30
2019-03-19T21:34:58.725Z,18.30
2019-03-19T21:37:28.855Z,18.30
2019-03-19T21:39:58.988Z,18.30
2019-03-19T21:42:29.119Z,18.30
2019-03-19T21:44:59.272Z,18.30
2019-03-19T21:47:29.447Z,18.20
2019-03-19T21:49:59.592Z,18.30
2019-03-19T21:52:29.837Z,18.20
2019-03-19T21:54:59.987Z,18.20
2019-03-19T21:57:31.714Z,18.20
2019-03-19T22:00:02.025Z,18.20
2019-03-19T22:02:33.779Z,18.20
2019-03-19T22:05:04.303Z,18.20
2019-03-19T22:07:34.440Z,18.20
2019-03-19T22:10:12.394Z,18.10
2019-03-19T22:12:42.515Z,18.20
2019-03-19T22:15:18.740Z,18.10
2019-03-19T22:17:49.742Z,18.10
2019-03-19T22:20:19.949Z,18.10
2019-03-19T22:22:50.023Z,18.10
2019-03-19T22:25:20.243Z,18.10
2019-03-19T22:27:50.392Z,18.10
2019-03-19T22:30:21.643Z,18.10
2019-03-19T22:32:51.783Z,18.10
2019-03-19T22:35:21.940Z,18.00
2019-03-19T22:37:52.064Z,18.00
2019-03-19T22:40:22.203Z,18.00
2019-03-19T22:42:52.342Z,18.00
2019-03-19T22:45:22.611Z,18.00
2019-03-19T22:47:52.793Z,18.00
2019-03-19T22:50:24.024Z,18.00
2019-03-19T22:52:54.173Z,17.90
2019-03-19T22:55:28.912Z,17.90
2019-03-19T22:57:56.465Z,17.90
2019-03-19T23:00:37.147Z,17.90
2019-03-19T23:03:09.190Z,17.90
2019-03-19T23:05:41.149Z,17.90
2019-03-19T23:08:11.286Z,17.90
2019-03-19T23:10:41.530Z,17.90
2019-03-19T23:13:12.092Z,17.90
2019-03-19T23:15:42.346Z,17.80
2019-03-19T23:18:12.545Z,17.90
2019-03-19T23:20:42.686Z,17.80
2019-03-19T23:23:20.204Z,17.80
2019-03-19T23:25:50.408Z,17.80
2019-03-19T23:28:20.586Z,17.80
2019-03-19T23:30:50.724Z,17.80
2019-03-19T23:33:20.881Z,17.80
2019-03-19T23:35:51.023Z,17.70
2019-03-19T23:38:21.153Z,17.80
2019-03-19T23:40:51.303Z,17.80
2019-03-19T23:43:21.549Z,17.70
2019-03-19T23:45:51.672Z,17.70
2019-03-19T23:48:21.815Z,17.70
2019-03-19T23:50:51.965Z,17.70
2019-03-19T23:53:22.109Z,17.60
2019-03-19T23:55:52.269Z,17.70
2019-03-19T23:58:22.413Z,17.60
